createdAt,value
2023-05-13T00:00:49.265Z,14.14
2023-05-13T00:05:51.230Z,14.22
2023-05-13T00:10:52.588Z,14.32
2023-05-13T00:15:53.947Z,14.39
2023-05-13T00:20:56.207Z,14.34
2023-05-13T00:25:57.522Z,14.17
2023-05-13T00:30:58.856Z,14.14
2023-05-13T00:36:00.185Z,13.99
2023-05-13T00:41:02.936Z,13.93
2023-05-13T00:46:04.640Z,14.16
2023-05-13T00:51:06.282Z,14.28
2023-05-13T00:56:07.919Z,14.41
2023-05-13T01:01:19.140Z,14.50
2023-05-13T01:06:36.283Z,14.56
2023-05-13T01:11:41.545Z,14.51
2023-05-13T01:17:08.222Z,14.55
2023-05-13T01:22:09.862Z,14.50
2023-05-13T01:27:11.693Z,14.55
2023-05-13T01:32:13.959Z,14.59
2023-05-13T01:37:15.531Z,14.59
2023-05-13T01:42:17.006Z,14.62
2023-05-13T01:47:18.320Z,14.62
2023-05-13T01:52:20.786Z,14.52
2023-05-13T01:57:22.416Z,14.54
2023-05-13T02:02:24.414Z,14.54
2023-05-13T02:07:25.906Z,14.53
2023-05-13T02:12:27.320Z,14.55
2023-05-13T02:17:28.667Z,14.38
2023-05-13T02:22:30.013Z,14.34
2023-05-13T02:27:31.360Z,14.32
2023-05-13T02:32:32.704Z,14.28
2023-05-13T02:37:34.061Z,14.34
2023-05-13T02:42:35.550Z,14.32
2023-05-13T02:47:37.025Z,14.29
2023-05-13T02:52:39.243Z,14.26
2023-05-13T02:57:40.596Z,14.22
2023-05-13T03:02:42.192Z,14.15
2023-05-13T03:07:43.933Z,14.07
2023-05-13T03:12:45.482Z,13.96
2023-05-13T03:17:46.890Z,13.85
2023-05-13T03:22:48.290Z,13.66
2023-05-13T03:27:49.625Z,13.59
2023-05-13T03:32:51.025Z,13.50
2023-05-13T03:37:52.588Z,13.33
2023-05-13T03:42:53.919Z,13.34
2023-05-13T03:47:55.387Z,13.30
2023-05-13T03:52:56.852Z,13.28
2023-05-13T03:57:58.251Z,13.21
2023-05-13T04:02:59.756Z,13.25
2023-05-13T04:08:01.132Z,13.36
2023-05-13T04:13:02.551Z,13.42
2023-05-13T04:18:03.954Z,13.48
2023-05-13T04:23:05.838Z,13.52
2023-05-13T04:28:07.346Z,13.53
2023-05-13T04:33:08.704Z,13.56
2023-05-13T04:38:10.236Z,13.60
2023-05-13T04:43:12.092Z,13.68
2023-05-13T04:48:13.431Z,13.79
2023-05-13T04:53:15.023Z,13.85
2023-05-13T04:58:16.572Z,13.88
2023-05-13T05:03:17.964Z,13.92
2023-05-13T05:08:19.306Z,14.05
2023-05-13T05:13:20.666Z,14.17
2023-05-13T05:18:22.049Z,14.28
2023-05-13T05:23:23.456Z,14.42
2023-05-13T05:28:24.885Z,14.63
2023-05-13T05:33:27.041Z,14.79
2023-05-13T05:38:28.453Z,14.90
2023-05-13T05:43:30.538Z,15.06
2023-05-13T05:48:34.383Z,15.20
2023-05-13T05:53:37.630Z,15.31
2023-05-13T05:58:39.165Z,15.44
2023-05-13T06:03:40.642Z,15.54
2023-05-13T06:08:42.104Z,15.77
2023-05-13T06:13:44.077Z,15.98
2023-05-13T06:18:45.482Z,16.21
2023-05-13T06:23:46.912Z,16.42
2023-05-13T06:28:48.974Z,16.71
2023-05-13T06:33:50.466Z,16.96
2023-05-13T06:38:53.574Z,16.99
2023-05-13T06:43:54.946Z,17.10
2023-05-13T06:48:57.709Z,17.07
2023-05-13T06:53:59.382Z,17.08
2023-05-13T06:59:00.707Z,17.09
2023-05-13T07:04:02.132Z,17.18
2023-05-13T07:09:07.996Z,17.17
2023-05-13T07:14:09.831Z,17.29
2023-05-13T07:19:11.184Z,17.44
2023-05-13T07:24:12.630Z,17.60
2023-05-13T07:29:13.990Z,17.89
2023-05-13T07:34:16.082Z,18.06
2023-05-13T07:39:18.148Z,18.32
2023-05-13T07:44:19.509Z,18.38
2023-05-13T07:49:21.667Z,18.51
2023-05-13T07:54:23.048Z,18.57
2023-05-13T07:59:24.422Z,18.71
2023-05-13T08:04:25.932Z,18.87
2023-05-13T08:09:27.726Z,18.97
2023-05-13T08:14:29.383Z,19.02
2023-05-13T08:19:30.809Z,19.09
2023-05-13T08:24:32.204Z,19.28
2023-05-13T08:29:33.518Z,19.54
2023-05-13T08:34:34.896Z,19.86
2023-05-13T08:39:36.324Z,20.25
2023-05-13T08:44:39.937Z,20.40
2023-05-13T08:49:42.066Z,20.57
2023-05-13T08:54:43.972Z,20.85
2023-05-13T08:59:45.636Z,21.10
2023-05-13T09:04:53.157Z,21.30
2023-05-13T09:09:54.612Z,21.41
2023-05-13T09:14:56.075Z,21.41
2023-05-13T09:19:57.484Z,21.42
2023-05-13T09:24:58.858Z,21.47
2023-05-13T09:30:00.708Z,21.14
2023-05-13T09:35:16.643Z,21.35
2023-05-13T09:40:18.280Z,21.62
2023-05-13T09:45:19.920Z,21.85
2023-05-13T09:50:22.034Z,21.80
2023-05-13T09:55:23.904Z,22.07
2023-05-13T10:00:32.551Z,22.25
2023-05-13T10:05:35.141Z,22.24
2023-05-13T10:10:37.058Z,22.53
2023-05-13T10:15:55.107Z,22.71
2023-05-13T10:20:56.928Z,22.84
2023-05-13T10:25:59.025Z,23.06
2023-05-13T10:31:00.403Z,23.31
2023-05-13T10:36:39.540Z,23.39
2023-05-13T10:42:18.874Z,23.73
2023-05-13T10:47:20.272Z,23.90
2023-05-13T10:52:21.645Z,24.08
2023-05-13T10:57:35.475Z,24.15
2023-05-13T11:02:37.286Z,24.18
2023-05-13T11:07:39.627Z,24.23
2023-05-13T11:12:41.002Z,24.29
2023-05-13T11:17:45.927Z,24.30
2023-05-13T11:22:47.386Z,24.08
2023-05-13T11:27:48.798Z,23.52
2023-05-13T11:32:56.504Z,22.88
2023-05-13T11:38:00.651Z,22.24
2023-05-13T11:43:04.847Z,22.50
2023-05-13T11:48:23.330Z,22.81
2023-05-13T11:53:24.838Z,23.30
2023-05-13T11:58:26.364Z,23.69
2023-05-13T12:03:28.097Z,23.83
2023-05-13T12:08:30.070Z,24.01
2023-05-13T12:13:31.590Z,24.22
2023-05-13T12:18:33.813Z,24.19
2023-05-13T12:23:41.396Z,24.60
2023-05-13T12:28:42.800Z,25.37
2023-05-13T12:33:46.744Z,24.73
2023-05-13T12:39:02.419Z,24.26
2023-05-13T12:44:08.879Z,23.83
2023-05-13T12:49:11.947Z,23.00
2023-05-13T12:54:13.344Z,22.32
2023-05-13T12:59:15.666Z,21.83
2023-05-13T13:04:17.383Z,21.72
2023-05-13T13:09:18.789Z,21.52
2023-05-13T13:14:20.154Z,21.38
2023-05-13T13:19:21.498Z,21.55
2023-05-13T13:24:22.871Z,21.64
2023-05-13T13:29:24.219Z,21.91
2023-05-13T13:34:25.551Z,22.28
2023-05-13T13:39:26.903Z,22.74
2023-05-13T13:44:28.681Z,23.18
2023-05-13T13:49:30.035Z,23.60
2023-05-13T13:54:31.439Z,23.87
2023-05-13T13:59:32.804Z,24.07
2023-05-13T14:04:36.596Z,24.19
2023-05-13T14:09:38.747Z,24.55
2023-05-13T14:14:40.080Z,25.80
2023-05-13T14:19:41.445Z,26.44
2023-05-13T14:24:42.772Z,26.44
2023-05-13T14:29:46.539Z,26.25
2023-05-13T14:34:47.869Z,26.67
2023-05-13T14:39:50.121Z,27.92
2023-05-13T14:44:51.738Z,28.79
2023-05-13T14:49:53.079Z,29.32
2023-05-13T14:54:54.426Z,29.42
2023-05-13T14:59:56.444Z,29.43
2023-05-13T15:04:59.477Z,29.71
2023-05-13T15:10:00.812Z,29.95
2023-05-13T15:15:02.238Z,30.21
2023-05-13T15:20:04.086Z,29.94
2023-05-13T15:25:06.007Z,29.70
2023-05-13T15:30:07.878Z,29.59
2023-05-13T15:35:09.433Z,29.79
2023-05-13T15:40:11.444Z,29.73
2023-05-13T15:45:12.829Z,29.79
2023-05-13T15:50:14.195Z,29.95
2023-05-13T15:55:15.697Z,29.83
2023-05-13T16:00:17.944Z,29.66
2023-05-13T16:05:19.381Z,29.91
2023-05-13T16:10:20.943Z,29.95
2023-05-13T16:15:22.493Z,30.11
2023-05-13T16:20:24.160Z,29.95
2023-05-13T16:25:27.019Z,30.15
2023-05-13T16:30:28.398Z,30.40
2023-05-13T16:35:29.794Z,30.53
2023-05-13T16:40:31.233Z,30.66
2023-05-13T16:45:32.668Z,30.49
2023-05-13T16:50:34.129Z,30.14
2023-05-13T16:55:35.576Z,29.77
2023-05-13T17:00:36.917Z,29.72
2023-05-13T17:05:38.490Z,29.70
2023-05-13T17:10:39.920Z,29.90
2023-05-13T17:15:41.281Z,29.89
2023-05-13T17:20:43.875Z,29.93
2023-05-13T17:25:45.776Z,29.99
2023-05-13T17:30:47.168Z,29.77
2023-05-13T17:35:48.534Z,29.65
2023-05-13T17:40:50.753Z,29.40
2023-05-13T17:45:52.087Z,29.25
2023-05-13T17:50:53.619Z,28.82
2023-05-13T17:55:55.007Z,28.01
2023-05-13T18:00:56.360Z,27.09
2023-05-13T18:05:57.818Z,26.49
2023-05-13T18:10:59.206Z,25.75
2023-05-13T18:16:00.580Z,25.27
2023-05-13T18:21:01.959Z,24.71
2023-05-13T18:26:03.549Z,24.13
2023-05-13T18:31:04.925Z,23.42
2023-05-13T18:36:07.259Z,22.96
2023-05-13T18:41:09.417Z,22.18
2023-05-13T18:46:11.535Z,21.74
2023-05-13T18:51:14.302Z,21.24
2023-05-13T18:56:16.011Z,20.96
2023-05-13T19:01:17.521Z,20.57
2023-05-13T19:06:19.128Z,20.32
2023-05-13T19:11:21.470Z,19.94
2023-05-13T19:16:22.848Z,19.76
2023-05-13T19:21:24.228Z,19.66
2023-05-13T19:26:25.948Z,19.58
2023-05-13T19:31:27.658Z,19.51
2023-05-13T19:36:29.057Z,19.34
2023-05-13T19:41:30.410Z,19.20
2023-05-13T19:46:31.783Z,19.10
2023-05-13T19:51:33.295Z,18.96
2023-05-13T19:56:34.674Z,18.80
2023-05-13T20:01:37.565Z,18.68
2023-05-13T20:06:38.975Z,18.52
2023-05-13T20:11:40.410Z,18.39
2023-05-13T20:16:42.145Z,18.17
2023-05-13T20:21:44.670Z,18.08
2023-05-13T20:26:46.040Z,17.95
2023-05-13T20:31:47.493Z,17.88
2023-05-13T20:36:49.044Z,17.72
2023-05-13T20:41:50.632Z,17.64
2023-05-13T20:46:52.416Z,17.56
2023-05-13T20:51:53.869Z,17.44
2023-05-13T20:56:55.296Z,17.26
2023-05-13T21:01:56.859Z,17.16
2023-05-13T21:06:58.397Z,16.99
2023-05-13T21:11:59.794Z,16.83
2023-05-13T21:17:03.323Z,16.70
2023-05-13T21:22:05.800Z,16.59
2023-05-13T21:27:07.314Z,16.31
2023-05-13T21:32:08.643Z,16.35
2023-05-13T21:37:10.027Z,16.39
2023-05-13T21:42:11.384Z,16.26
2023-05-13T21:47:12.743Z,16.16
2023-05-13T21:52:14.100Z,16.11
2023-05-13T21:57:15.519Z,16.04
2023-05-13T22:02:16.994Z,15.83
2023-05-13T22:07:18.355Z,15.71
2023-05-13T22:12:21.062Z,15.52
2023-05-13T22:17:22.594Z,15.47
2023-05-13T22:22:24.205Z,15.46
2023-05-13T22:27:25.571Z,15.41
2023-05-13T22:32:27.046Z,15.36
2023-05-13T22:37:28.458Z,15.25
2023-05-13T22:42:29.799Z,15.22
2023-05-13T22:47:31.233Z,14.97
2023-05-13T22:52:32.601Z,14.69
2023-05-13T22:57:34.062Z,14.78
2023-05-13T23:02:35.446Z,14.89
2023-05-13T23:07:36.850Z,14.92
2023-05-13T23:12:38.935Z,14.88
2023-05-13T23:17:40.400Z,14.81
2023-05-13T23:22:41.865Z,14.78
2023-05-13T23:27:43.264Z,14.50
2023-05-13T23:32:44.804Z,14.53
2023-05-13T23:37:46.185Z,14.49
2023-05-13T23:42:47.622Z,14.40
2023-05-13T23:47:50.223Z,14.38
2023-05-13T23:52:51.649Z,14.35
2023-05-13T23:57:53.009Z,14.23
